sensor_id;sensor_type;location;lat;lon;timestamp;P1;durP1;ratioP1;P2;durP2;ratioP2
2646;SDS011;1333;50.958;6.770;2022-08-02T00:00:14;2.57;;;1.80;;
2646;SDS011;1333;50.958;6.770;2022-08-02T00:02:41;3.43;;;1.80;;
2646;SDS011;1333;50.958;6.770;2022-08-02T00:05:08;2.47;;;1.57;;
2646;SDS011;1333;50.958;6.770;2022-08-02T00:07:34;1.93;;;1.73;;
2646;SDS011;1333;50.958;6.770;2022-08-02T00:10:00;2.03;;;1.70;;
2646;SDS011;1333;50.958;6.770;2022-08-02T00:12:25;6.40;;;2.03;;
2646;SDS011;1333;50.958;6.770;2022-08-02T00:14:51;4.67;;;2.63;;
2646;SDS011;1333;50.958;6.770;2022-08-02T00:17:17;2.70;;;2.20;;
2646;SDS011;1333;50.958;6.770;2022-08-02T00:19:43;4.10;;;3.70;;
2646;SDS011;1333;50.958;6.770;2022-08-02T00:22:09;2.20;;;2.00;;
2646;SDS011;1333;50.958;6.770;2022-08-02T00:24:34;2.17;;;1.93;;
2646;SDS011;1333;50.958;6.770;2022-08-02T00:27:00;2.17;;;1.40;;
2646;SDS011;1333;50.958;6.770;2022-08-02T00:29:28;2.73;;;1.97;;
2646;SDS011;1333;50.958;6.770;2022-08-02T00:31:54;1.70;;;1.60;;
2646;SDS011;1333;50.958;6.770;2022-08-02T00:34:20;1.83;;;1.63;;
2646;SDS011;1333;50.958;6.770;2022-08-02T00:36:46;3.70;;;1.83;;
2646;SDS011;1333;50.958;6.770;2022-08-02T00:39:11;2.47;;;2.20;;
2646;SDS011;1333;50.958;6.770;2022-08-02T00:41:43;2.87;;;2.00;;
2646;SDS011;1333;50.958;6.770;2022-08-02T00:44:16;1.60;;;1.30;;
2646;SDS011;1333;50.958;6.770;2022-08-02T00:46:43;1.73;;;1.63;;
2646;SDS011;1333;50.958;6.770;2022-08-02T00:49:09;1.90;;;1.80;;
2646;SDS011;1333;50.958;6.770;2022-08-02T00:51:35;2.43;;;2.23;;
2646;SDS011;1333;50.958;6.770;2022-08-02T00:54:00;2.10;;;1.90;;
2646;SDS011;1333;50.958;6.770;2022-08-02T00:56:26;3.17;;;1.83;;
2646;SDS011;1333;50.958;6.770;2022-08-02T00:58:52;2.73;;;1.50;;
2646;SDS011;1333;50.958;6.770;2022-08-02T01:01:17;2.40;;;2.20;;
2646;SDS011;1333;50.958;6.770;2022-08-02T01:03:43;2.90;;;1.60;;
2646;SDS011;1333;50.958;6.770;2022-08-02T01:06:09;2.77;;;1.73;;
2646;SDS011;1333;50.958;6.770;2022-08-02T01:08:36;1.60;;;1.50;;
2646;SDS011;1333;50.958;6.770;2022-08-02T01:11:04;5.27;;;1.50;;
2646;SDS011;1333;50.958;6.770;2022-08-02T01:13:30;2.83;;;2.40;;
2646;SDS011;1333;50.958;6.770;2022-08-02T01:15:57;2.10;;;1.87;;
2646;SDS011;1333;50.958;6.770;2022-08-02T01:18:30;1.97;;;1.80;;
2646;SDS011;1333;50.958;6.770;2022-08-02T01:21:04;2.10;;;1.90;;
2646;SDS011;1333;50.958;6.770;2022-08-02T01:26:41;2.50;;;2.27;;
2646;SDS011;1333;50.958;6.770;2022-08-02T01:31:49;2.67;;;1.80;;
2646;SDS011;1333;50.958;6.770;2022-08-02T01:37:02;2.60;;;1.87;;
2646;SDS011;1333;50.958;6.770;2022-08-02T01:39:35;2.47;;;2.20;;
2646;SDS011;1333;50.958;6.770;2022-08-02T01:42:04;2.53;;;2.33;;
2646;SDS011;1333;50.958;6.770;2022-08-02T01:44:32;3.57;;;2.10;;
2646;SDS011;1333;50.958;6.770;2022-08-02T01:47:02;2.50;;;2.30;;
2646;SDS011;1333;50.958;6.770;2022-08-02T01:49:31;2.90;;;2.23;;
2646;SDS011;1333;50.958;6.770;2022-08-02T01:52:00;2.27;;;1.90;;
2646;SDS011;1333;50.958;6.770;2022-08-02T01:54:48;2.10;;;1.90;;
2646;SDS011;1333;50.958;6.770;2022-08-02T01:57:16;2.93;;;2.47;;
2646;SDS011;1333;50.958;6.770;2022-08-02T01:59:44;2.53;;;2.07;;
2646;SDS011;1333;50.958;6.770;2022-08-02T02:02:12;2.20;;;2.00;;
2646;SDS011;1333;50.958;6.770;2022-08-02T02:04:40;3.10;;;2.10;;
2646;SDS011;1333;50.958;6.770;2022-08-02T02:07:07;2.23;;;1.63;;
2646;SDS011;1333;50.958;6.770;2022-08-02T02:09:35;3.23;;;2.27;;
2646;SDS011;1333;50.958;6.770;2022-08-02T02:12:02;2.90;;;1.73;;
2646;SDS011;1333;50.958;6.770;2022-08-02T02:14:30;13.00;;;3.80;;
2646;SDS011;1333;50.958;6.770;2022-08-02T02:16:58;3.83;;;3.53;;
2646;SDS011;1333;50.958;6.770;2022-08-02T02:19:24;2.53;;;2.00;;
2646;SDS011;1333;50.958;6.770;2022-08-02T02:21:52;2.43;;;2.23;;
2646;SDS011;1333;50.958;6.770;2022-08-02T02:24:17;2.73;;;2.20;;
2646;SDS011;1333;50.958;6.770;2022-08-02T02:26:43;2.03;;;1.80;;
2646;SDS011;1333;50.958;6.770;2022-08-02T02:29:11;2.40;;;2.17;;
2646;SDS011;1333;50.958;6.770;2022-08-02T02:31:38;3.30;;;2.40;;
2646;SDS011;1333;50.958;6.770;2022-08-02T02:34:13;2.47;;;2.20;;
2646;SDS011;1333;50.958;6.770;2022-08-02T02:36:44;3.40;;;1.70;;
2646;SDS011;1333;50.958;6.770;2022-08-02T02:39:11;4.20;;;2.50;;
2646;SDS011;1333;50.958;6.770;2022-08-02T02:41:39;2.37;;;2.10;;
2646;SDS011;1333;50.958;6.770;2022-08-02T02:44:06;2.47;;;2.27;;
2646;SDS011;1333;50.958;6.770;2022-08-02T02:46:35;3.87;;;1.80;;
2646;SDS011;1333;50.958;6.770;2022-08-02T02:49:01;2.47;;;2.00;;
2646;SDS011;1333;50.958;6.770;2022-08-02T02:51:27;2.80;;;2.00;;
2646;SDS011;1333;50.958;6.770;2022-08-02T02:53:54;3.20;;;2.37;;
2646;SDS011;1333;50.958;6.770;2022-08-02T02:56:21;2.60;;;2.40;;
2646;SDS011;1333;50.958;6.770;2022-08-02T02:58:47;2.03;;;1.83;;
2646;SDS011;1333;50.958;6.770;2022-08-02T03:01:13;4.47;;;2.90;;
2646;SDS011;1333;50.958;6.770;2022-08-02T03:03:51;6.40;;;2.00;;
2646;SDS011;1333;50.958;6.770;2022-08-02T03:06:29;4.83;;;2.37;;
2646;SDS011;1333;50.958;6.770;2022-08-02T03:08:55;3.53;;;2.70;;
2646;SDS011;1333;50.958;6.770;2022-08-02T03:11:21;3.43;;;2.70;;
2646;SDS011;1333;50.958;6.770;2022-08-02T03:13:48;3.30;;;2.87;;
2646;SDS011;1333;50.958;6.770;2022-08-02T03:16:14;2.67;;;2.43;;
2646;SDS011;1333;50.958;6.770;2022-08-02T03:18:41;4.30;;;2.30;;
2646;SDS011;1333;50.958;6.770;2022-08-02T03:21:08;5.03;;;2.80;;
2646;SDS011;1333;50.958;6.770;2022-08-02T03:23:36;2.70;;;2.40;;
2646;SDS011;1333;50.958;6.770;2022-08-02T03:26:03;3.43;;;2.80;;
2646;SDS011;1333;50.958;6.770;2022-08-02T03:28:28;3.07;;;2.80;;
2646;SDS011;1333;50.958;6.770;2022-08-02T03:30:54;4.30;;;2.60;;
2646;SDS011;1333;50.958;6.770;2022-08-02T03:33:20;3.20;;;2.60;;
2646;SDS011;1333;50.958;6.770;2022-08-02T03:35:47;4.73;;;2.67;;
2646;SDS011;1333;50.958;6.770;2022-08-02T03:38:15;3.50;;;3.20;;
2646;SDS011;1333;50.958;6.770;2022-08-02T03:40:44;3.43;;;2.43;;
2646;SDS011;1333;50.958;6.770;2022-08-02T03:43:10;2.70;;;2.50;;
2646;SDS011;1333;50.958;6.770;2022-08-02T03:45:38;3.33;;;2.80;;
2646;SDS011;1333;50.958;6.770;2022-08-02T03:48:05;6.60;;;3.33;;
2646;SDS011;1333;50.958;6.770;2022-08-02T03:50:32;3.57;;;2.70;;
2646;SDS011;1333;50.958;6.770;2022-08-02T03:52:58;4.30;;;3.33;;
2646;SDS011;1333;50.958;6.770;2022-08-02T03:55:25;4.57;;;3.43;;
2646;SDS011;1333;50.958;6.770;2022-08-02T03:57:50;3.70;;;3.20;;
2646;SDS011;1333;50.958;6.770;2022-08-02T04:00:17;7.57;;;3.27;;
2646;SDS011;1333;50.958;6.770;2022-08-02T04:02:44;4.20;;;2.90;;
2646;SDS011;1333;50.958;6.770;2022-08-02T04:05:09;4.00;;;2.97;;
2646;SDS011;1333;50.958;6.770;2022-08-02T04:07:35;2.90;;;2.60;;
2646;SDS011;1333;50.958;6.770;2022-08-02T04:10:01;3.93;;;3.50;;
2646;SDS011;1333;50.958;6.770;2022-08-02T04:12:27;4.70;;;3.23;;
2646;SDS011;1333;50.958;6.770;2022-08-02T04:14:53;4.40;;;3.63;;
2646;SDS011;1333;50.958;6.770;2022-08-02T04:17:18;5.57;;;2.90;;
2646;SDS011;1333;50.958;6.770;2022-08-02T04:19:50;5.30;;;3.03;;
2646;SDS011;1333;50.958;6.770;2022-08-02T04:22:22;4.60;;;3.10;;
2646;SDS011;1333;50.958;6.770;2022-08-02T04:24:56;4.33;;;2.40;;
2646;SDS011;1333;50.958;6.770;2022-08-02T04:27:24;4.10;;;3.60;;
2646;SDS011;1333;50.958;6.770;2022-08-02T04:29:50;7.87;;;2.83;;
2646;SDS011;1333;50.958;6.770;2022-08-02T04:32:17;3.30;;;2.90;;
2646;SDS011;1333;50.958;6.770;2022-08-02T04:34:44;5.23;;;3.53;;
2646;SDS011;1333;50.958;6.770;2022-08-02T04:37:14;2.50;;;2.30;;
2646;SDS011;1333;50.958;6.770;2022-08-02T04:39:40;4.57;;;3.77;;
2646;SDS011;1333;50.958;6.770;2022-08-02T04:42:06;5.77;;;3.80;;
2646;SDS011;1333;50.958;6.770;2022-08-02T04:44:32;6.60;;;4.40;;
2646;SDS011;1333;50.958;6.770;2022-08-02T04:46:59;9.20;;;4.33;;
2646;SDS011;1333;50.958;6.770;2022-08-02T04:49:26;6.07;;;4.13;;
2646;SDS011;1333;50.958;6.770;2022-08-02T04:51:52;4.33;;;3.47;;
2646;SDS011;1333;50.958;6.770;2022-08-02T04:54:18;3.50;;;3.07;;
2646;SDS011;1333;50.958;6.770;2022-08-02T04:56:44;4.73;;;4.00;;
2646;SDS011;1333;50.958;6.770;2022-08-02T04:59:09;3.97;;;3.60;;
2646;SDS011;1333;50.958;6.770;2022-08-02T05:01:36;5.40;;;3.40;;
2646;SDS011;1333;50.958;6.770;2022-08-02T05:04:03;4.70;;;3.70;;
2646;SDS011;1333;50.958;6.770;2022-08-02T05:06:29;4.83;;;3.43;;
2646;SDS011;1333;50.958;6.770;2022-08-02T05:08:55;3.87;;;3.43;;
2646;SDS011;1333;50.958;6.770;2022-08-02T05:11:21;3.73;;;3.07;;
2646;SDS011;1333;50.958;6.770;2022-08-02T05:13:48;5.37;;;4.13;;
2646;SDS011;1333;50.958;6.770;2022-08-02T05:16:14;5.57;;;4.20;;
2646;SDS011;1333;50.958;6.770;2022-08-02T05:18:39;4.17;;;3.77;;
2646;SDS011;1333;50.958;6.770;2022-08-02T05:21:05;3.80;;;3.33;;
2646;SDS011;1333;50.958;6.770;2022-08-02T05:23:31;3.70;;;3.27;;
2646;SDS011;1333;50.958;6.770;2022-08-02T05:25:56;4.00;;;3.60;;
2646;SDS011;1333;50.958;6.770;2022-08-02T05:28:22;4.40;;;3.43;;
2646;SDS011;1333;50.958;6.770;2022-08-02T05:30:48;10.00;;;4.00;;
2646;SDS011;1333;50.958;6.770;2022-08-02T05:33:13;3.67;;;3.07;;
2646;SDS011;1333;50.958;6.770;2022-08-02T05:35:39;3.93;;;3.23;;
2646;SDS011;1333;50.958;6.770;2022-08-02T05:38:04;3.80;;;3.10;;
2646;SDS011;1333;50.958;6.770;2022-08-02T05:40:30;3.83;;;3.43;;
2646;SDS011;1333;50.958;6.770;2022-08-02T05:42:56;6.40;;;3.50;;
2646;SDS011;1333;50.958;6.770;2022-08-02T05:45:21;4.37;;;3.50;;
2646;SDS011;1333;50.958;6.770;2022-08-02T05:47:47;3.37;;;2.83;;
2646;SDS011;1333;50.958;6.770;2022-08-02T05:50:13;3.83;;;3.10;;
2646;SDS011;1333;50.958;6.770;2022-08-02T05:55:23;4.50;;;3.37;;
2646;SDS011;1333;50.958;6.770;2022-08-02T05:58:13;2.93;;;2.73;;
2646;SDS011;1333;50.958;6.770;2022-08-02T06:00:47;3.97;;;2.97;;
2646;SDS011;1333;50.958;6.770;2022-08-02T06:03:24;5.40;;;3.83;;
2646;SDS011;1333;50.958;6.770;2022-08-02T06:06:00;5.07;;;4.40;;
2646;SDS011;1333;50.958;6.770;2022-08-02T06:08:31;6.93;;;4.07;;
2646;SDS011;1333;50.958;6.770;2022-08-02T06:11:01;3.70;;;2.50;;
2646;SDS011;1333;50.958;6.770;2022-08-02T06:13:29;3.97;;;3.50;;
2646;SDS011;1333;50.958;6.770;2022-08-02T06:15:56;4.10;;;2.90;;
2646;SDS011;1333;50.958;6.770;2022-08-02T06:18:24;3.67;;;3.00;;
2646;SDS011;1333;50.958;6.770;2022-08-02T06:20:50;3.83;;;3.13;;
2646;SDS011;1333;50.958;6.770;2022-08-02T06:23:17;4.60;;;3.00;;
2646;SDS011;1333;50.958;6.770;2022-08-02T06:25:47;6.80;;;3.43;;
2646;SDS011;1333;50.958;6.770;2022-08-02T06:28:14;3.37;;;3.07;;
2646;SDS011;1333;50.958;6.770;2022-08-02T06:30:41;3.87;;;2.97;;
2646;SDS011;1333;50.958;6.770;2022-08-02T06:33:08;4.50;;;2.50;;
2646;SDS011;1333;50.958;6.770;2022-08-02T06:38:14;4.37;;;3.00;;
2646;SDS011;1333;50.958;6.770;2022-08-02T06:40:55;7.43;;;3.60;;
2646;SDS011;1333;50.958;6.770;2022-08-02T06:43:36;7.30;;;3.90;;
2646;SDS011;1333;50.958;6.770;2022-08-02T06:46:15;3.00;;;2.70;;
2646;SDS011;1333;50.958;6.770;2022-08-02T06:48:41;5.63;;;3.43;;
2646;SDS011;1333;50.958;6.770;2022-08-02T06:51:06;2.97;;;2.77;;
2646;SDS011;1333;50.958;6.770;2022-08-02T06:53:32;3.63;;;3.17;;
2646;SDS011;1333;50.958;6.770;2022-08-02T06:55:58;3.60;;;2.83;;
2646;SDS011;1333;50.958;6.770;2022-08-02T06:58:24;3.87;;;3.10;;
2646;SDS011;1333;50.958;6.770;2022-08-02T07:00:50;4.33;;;3.00;;
2646;SDS011;1333;50.958;6.770;2022-08-02T07:03:16;8.63;;;3.30;;
2646;SDS011;1333;50.958;6.770;2022-08-02T07:05:42;3.07;;;2.53;;
2646;SDS011;1333;50.958;6.770;2022-08-02T07:08:12;4.60;;;3.43;;
2646;SDS011;1333;50.958;6.770;2022-08-02T07:10:40;5.63;;;3.20;;
2646;SDS011;1333;50.958;6.770;2022-08-02T07:13:05;5.43;;;3.33;;
2646;SDS011;1333;50.958;6.770;2022-08-02T07:15:31;3.77;;;2.13;;
2646;SDS011;1333;50.958;6.770;2022-08-02T07:17:57;6.23;;;3.00;;
2646;SDS011;1333;50.958;6.770;2022-08-02T07:20:22;4.43;;;2.90;;
2646;SDS011;1333;50.958;6.770;2022-08-02T07:22:48;3.13;;;2.83;;
2646;SDS011;1333;50.958;6.770;2022-08-02T07:25:14;3.13;;;2.80;;
2646;SDS011;1333;50.958;6.770;2022-08-02T07:27:39;2.73;;;2.43;;
2646;SDS011;1333;50.958;6.770;2022-08-02T07:30:05;3.70;;;3.10;;
2646;SDS011;1333;50.958;6.770;2022-08-02T07:32:31;3.97;;;2.80;;
2646;SDS011;1333;50.958;6.770;2022-08-02T07:34:57;2.23;;;2.03;;
2646;SDS011;1333;50.958;6.770;2022-08-02T07:37:25;3.40;;;3.07;;
2646;SDS011;1333;50.958;6.770;2022-08-02T07:39:52;3.83;;;3.20;;
2646;SDS011;1333;50.958;6.770;2022-08-02T07:42:18;2.30;;;2.10;;
2646;SDS011;1333;50.958;6.770;2022-08-02T07:44:43;3.20;;;2.10;;
2646;SDS011;1333;50.958;6.770;2022-08-02T07:47:09;4.50;;;2.10;;
2646;SDS011;1333;50.958;6.770;2022-08-02T07:49:34;4.87;;;4.47;;
2646;SDS011;1333;50.958;6.770;2022-08-02T07:52:00;5.37;;;4.83;;
2646;SDS011;1333;50.958;6.770;2022-08-02T07:54:25;4.30;;;2.70;;
2646;SDS011;1333;50.958;6.770;2022-08-02T07:56:51;2.50;;;2.30;;
2646;SDS011;1333;50.958;6.770;2022-08-02T07:59:18;7.20;;;2.70;;
2646;SDS011;1333;50.958;6.770;2022-08-02T08:01:44;3.00;;;2.30;;
2646;SDS011;1333;50.958;6.770;2022-08-02T08:04:10;2.87;;;2.33;;
2646;SDS011;1333;50.958;6.770;2022-08-02T08:06:35;2.40;;;2.20;;
2646;SDS011;1333;50.958;6.770;2022-08-02T08:09:01;2.50;;;2.30;;
2646;SDS011;1333;50.958;6.770;2022-08-02T08:11:27;2.13;;;1.93;;
2646;SDS011;1333;50.958;6.770;2022-08-02T08:13:53;3.03;;;2.57;;
2646;SDS011;1333;50.958;6.770;2022-08-02T08:16:18;2.37;;;2.17;;
2646;SDS011;1333;50.958;6.770;2022-08-02T08:18:44;2.10;;;2.00;;
2646;SDS011;1333;50.958;6.770;2022-08-02T08:21:10;3.53;;;2.47;;
2646;SDS011;1333;50.958;6.770;2022-08-02T08:23:35;2.80;;;2.13;;
2646;SDS011;1333;50.958;6.770;2022-08-02T08:26:01;3.30;;;2.10;;
2646;SDS011;1333;50.958;6.770;2022-08-02T08:28:27;2.27;;;2.07;;
2646;SDS011;1333;50.958;6.770;2022-08-02T08:30:53;3.57;;;2.53;;
2646;SDS011;1333;50.958;6.770;2022-08-02T08:33:18;2.30;;;1.80;;
2646;SDS011;1333;50.958;6.770;2022-08-02T08:35:44;2.07;;;1.90;;
2646;SDS011;1333;50.958;6.770;2022-08-02T08:38:09;2.40;;;1.93;;
2646;SDS011;1333;50.958;6.770;2022-08-02T08:40:35;2.17;;;2.07;;
2646;SDS011;1333;50.958;6.770;2022-08-02T08:43:01;2.60;;;2.40;;
2646;SDS011;1333;50.958;6.770;2022-08-02T08:45:27;2.10;;;2.00;;
2646;SDS011;1333;50.958;6.770;2022-08-02T08:48:00;2.40;;;2.20;;
2646;SDS011;1333;50.958;6.770;2022-08-02T08:50:32;2.10;;;2.00;;
2646;SDS011;1333;50.958;6.770;2022-08-02T08:53:02;2.37;;;1.93;;
2646;SDS011;1333;50.958;6.770;2022-08-02T08:55:29;2.07;;;1.97;;
2646;SDS011;1333;50.958;6.770;2022-08-02T08:57:57;3.27;;;2.43;;
2646;SDS011;1333;50.958;6.770;2022-08-02T09:00:24;2.50;;;2.30;;
2646;SDS011;1333;50.958;6.770;2022-08-02T09:02:51;2.17;;;2.07;;
2646;SDS011;1333;50.958;6.770;2022-08-02T09:05:16;2.30;;;2.10;;
2646;SDS011;1333;50.958;6.770;2022-08-02T09:07:44;1.93;;;1.83;;
2646;SDS011;1333;50.958;6.770;2022-08-02T09:15:41;2.37;;;2.17;;
2646;SDS011;1333;50.958;6.770;2022-08-02T09:21:04;2.83;;;2.63;;
2646;SDS011;1333;50.958;6.770;2022-08-02T09:23:33;2.43;;;2.23;;
2646;SDS011;1333;50.958;6.770;2022-08-02T09:26:02;2.90;;;2.70;;
2646;SDS011;1333;50.958;6.770;2022-08-02T09:28:31;3.80;;;3.60;;
2646;SDS011;1333;50.958;6.770;2022-08-02T09:31:02;3.90;;;3.63;;
2646;SDS011;1333;50.958;6.770;2022-08-02T09:33:28;4.60;;;2.97;;
2646;SDS011;1333;50.958;6.770;2022-08-02T09:38:27;3.23;;;3.03;;
2646;SDS011;1333;50.958;6.770;2022-08-02T09:40:53;3.10;;;2.90;;
2646;SDS011;1333;50.958;6.770;2022-08-02T09:43:19;3.87;;;3.57;;
2646;SDS011;1333;50.958;6.770;2022-08-02T09:45:45;2.97;;;2.77;;
2646;SDS011;1333;50.958;6.770;2022-08-02T09:48:11;4.37;;;3.40;;
2646;SDS011;1333;50.958;6.770;2022-08-02T09:50:37;2.83;;;2.73;;
2646;SDS011;1333;50.958;6.770;2022-08-02T09:53:04;3.30;;;3.10;;
2646;SDS011;1333;50.958;6.770;2022-08-02T09:55:30;3.40;;;3.20;;
2646;SDS011;1333;50.958;6.770;2022-08-02T09:57:56;3.40;;;3.20;;
2646;SDS011;1333;50.958;6.770;2022-08-02T10:00:22;3.50;;;3.03;;
2646;SDS011;1333;50.958;6.770;2022-08-02T10:03:30;3.80;;;2.77;;
2646;SDS011;1333;50.958;6.770;2022-08-02T10:05:46;3.30;;;3.10;;
2646;SDS011;1333;50.958;6.770;2022-08-02T10:08:16;4.40;;;4.20;;
2646;SDS011;1333;50.958;6.770;2022-08-02T10:10:42;4.80;;;4.40;;
2646;SDS011;1333;50.958;6.770;2022-08-02T10:13:09;4.03;;;3.80;;
2646;SDS011;1333;50.958;6.770;2022-08-02T10:15:36;4.20;;;4.00;;
2646;SDS011;1333;50.958;6.770;2022-08-02T10:18:03;4.40;;;4.10;;
2646;SDS011;1333;50.958;6.770;2022-08-02T10:20:35;4.27;;;4.00;;
2646;SDS011;1333;50.958;6.770;2022-08-02T10:23:07;4.17;;;3.87;;
2646;SDS011;1333;50.958;6.770;2022-08-02T10:25:37;4.47;;;4.27;;
2646;SDS011;1333;50.958;6.770;2022-08-02T10:28:06;4.90;;;4.60;;
2646;SDS011;1333;50.958;6.770;2022-08-02T10:30:33;4.10;;;3.90;;
2646;SDS011;1333;50.958;6.770;2022-08-02T10:33:01;4.20;;;4.00;;
2646;SDS011;1333;50.958;6.770;2022-08-02T10:35:29;4.57;;;4.37;;
2646;SDS011;1333;50.958;6.770;2022-08-02T10:37:59;4.33;;;4.13;;
2646;SDS011;1333;50.958;6.770;2022-08-02T10:40:44;2.10;;;2.00;;
2646;SDS011;1333;50.958;6.770;2022-08-02T10:49:13;3.77;;;3.47;;
2646;SDS011;1333;50.958;6.770;2022-08-02T10:54:22;2.27;;;2.07;;
2646;SDS011;1333;50.958;6.770;2022-08-02T10:56:50;2.10;;;2.00;;
2646;SDS011;1333;50.958;6.770;2022-08-02T11:01:51;2.10;;;2.00;;
2646;SDS011;1333;50.958;6.770;2022-08-02T11:04:24;2.33;;;2.10;;
2646;SDS011;1333;50.958;6.770;2022-08-02T11:07:12;1.87;;;1.77;;
2646;SDS011;1333;50.958;6.770;2022-08-02T11:09:48;2.00;;;1.87;;
2646;SDS011;1333;50.958;6.770;2022-08-02T11:12:15;2.20;;;2.00;;
2646;SDS011;1333;50.958;6.770;2022-08-02T11:14:44;2.20;;;2.10;;
2646;SDS011;1333;50.958;6.770;2022-08-02T11:17:21;2.03;;;1.90;;
2646;SDS011;1333;50.958;6.770;2022-08-02T11:22:34;2.70;;;2.50;;
2646;SDS011;1333;50.958;6.770;2022-08-02T11:25:45;2.00;;;1.90;;
2646;SDS011;1333;50.958;6.770;2022-08-02T11:27:46;1.97;;;1.87;;
2646;SDS011;1333;50.958;6.770;2022-08-02T11:30:15;2.20;;;2.00;;
2646;SDS011;1333;50.958;6.770;2022-08-02T11:32:42;3.50;;;3.30;;
2646;SDS011;1333;50.958;6.770;2022-08-02T11:35:07;2.37;;;2.27;;
2646;SDS011;1333;50.958;6.770;2022-08-02T11:37:34;4.03;;;3.80;;
2646;SDS011;1333;50.958;6.770;2022-08-02T11:40:09;2.20;;;2.10;;
2646;SDS011;1333;50.958;6.770;2022-08-02T11:42:40;2.13;;;2.00;;
2646;SDS011;1333;50.958;6.770;2022-08-02T11:45:08;2.20;;;2.10;;
2646;SDS011;1333;50.958;6.770;2022-08-02T11:47:44;2.70;;;2.50;;
2646;SDS011;1333;50.958;6.770;2022-08-02T11:50:10;2.33;;;2.17;;
2646;SDS011;1333;50.958;6.770;2022-08-02T11:52:36;3.43;;;2.40;;
2646;SDS011;1333;50.958;6.770;2022-08-02T11:55:03;2.40;;;2.20;;
2646;SDS011;1333;50.958;6.770;2022-08-02T11:57:30;2.20;;;2.10;;
2646;SDS011;1333;50.958;6.770;2022-08-02T11:59:56;1.80;;;1.70;;
2646;SDS011;1333;50.958;6.770;2022-08-02T12:02:23;2.40;;;2.20;;
2646;SDS011;1333;50.958;6.770;2022-08-02T12:04:54;2.17;;;2.07;;
2646;SDS011;1333;50.958;6.770;2022-08-02T12:07:29;3.80;;;3.47;;
2646;SDS011;1333;50.958;6.770;2022-08-02T12:12:31;2.57;;;2.37;;
2646;SDS011;1333;50.958;6.770;2022-08-02T12:14:57;1.70;;;1.60;;
2646;SDS011;1333;50.958;6.770;2022-08-02T12:17:23;3.03;;;2.60;;
2646;SDS011;1333;50.958;6.770;2022-08-02T12:20:08;3.50;;;3.30;;
2646;SDS011;1333;50.958;6.770;2022-08-02T12:22:34;2.97;;;2.77;;
2646;SDS011;1333;50.958;6.770;2022-08-02T12:25:14;3.30;;;3.10;;
2646;SDS011;1333;50.958;6.770;2022-08-02T12:27:42;2.93;;;2.73;;
2646;SDS011;1333;50.958;6.770;2022-08-02T12:32:35;2.93;;;2.73;;
2646;SDS011;1333;50.958;6.770;2022-08-02T12:35:11;3.30;;;3.10;;
2646;SDS011;1333;50.958;6.770;2022-08-02T12:37:39;3.00;;;2.80;;
2646;SDS011;1333;50.958;6.770;2022-08-02T12:40:17;2.43;;;2.23;;
2646;SDS011;1333;50.958;6.770;2022-08-02T12:42:59;3.00;;;2.63;;
2646;SDS011;1333;50.958;6.770;2022-08-02T12:45:29;2.17;;;2.07;;
2646;SDS011;1333;50.958;6.770;2022-08-02T12:47:57;3.17;;;2.83;;
2646;SDS011;1333;50.958;6.770;2022-08-02T12:50:28;1.87;;;1.77;;
2646;SDS011;1333;50.958;6.770;2022-08-02T12:53:06;2.27;;;2.17;;
2646;SDS011;1333;50.958;6.770;2022-08-02T12:55:51;2.57;;;2.37;;
2646;SDS011;1333;50.958;6.770;2022-08-02T12:58:18;3.60;;;2.43;;
2646;SDS011;1333;50.958;6.770;2022-08-02T13:00:51;2.67;;;2.47;;
2646;SDS011;1333;50.958;6.770;2022-08-02T13:03:19;2.20;;;2.10;;
2646;SDS011;1333;50.958;6.770;2022-08-02T13:05:44;2.40;;;2.20;;
2646;SDS011;1333;50.958;6.770;2022-08-02T13:08:11;2.17;;;2.07;;
2646;SDS011;1333;50.958;6.770;2022-08-02T13:10:37;3.20;;;2.70;;
2646;SDS011;1333;50.958;6.770;2022-08-02T13:13:03;3.37;;;2.57;;
2646;SDS011;1333;50.958;6.770;2022-08-02T13:15:29;2.60;;;2.40;;
2646;SDS011;1333;50.958;6.770;2022-08-02T13:17:54;2.77;;;2.47;;
2646;SDS011;1333;50.958;6.770;2022-08-02T13:20:20;2.23;;;2.13;;
2646;SDS011;1333;50.958;6.770;2022-08-02T13:22:46;2.60;;;2.40;;
2646;SDS011;1333;50.958;6.770;2022-08-02T13:25:11;2.27;;;1.90;;
2646;SDS011;1333;50.958;6.770;2022-08-02T13:27:37;2.53;;;2.33;;
2646;SDS011;1333;50.958;6.770;2022-08-02T13:30:03;2.80;;;2.60;;
2646;SDS011;1333;50.958;6.770;2022-08-02T13:32:29;2.77;;;2.57;;
2646;SDS011;1333;50.958;6.770;2022-08-02T13:34:55;2.43;;;2.20;;
2646;SDS011;1333;50.958;6.770;2022-08-02T13:37:22;2.30;;;2.10;;
2646;SDS011;1333;50.958;6.770;2022-08-02T13:39:48;2.43;;;2.33;;
2646;SDS011;1333;50.958;6.770;2022-08-02T13:42:13;2.47;;;2.27;;
2646;SDS011;1333;50.958;6.770;2022-08-02T13:44:39;2.90;;;2.60;;
2646;SDS011;1333;50.958;6.770;2022-08-02T13:47:04;3.00;;;2.80;;
2646;SDS011;1333;50.958;6.770;2022-08-02T13:49:30;2.70;;;2.50;;
2646;SDS011;1333;50.958;6.770;2022-08-02T13:51:56;3.00;;;2.80;;
2646;SDS011;1333;50.958;6.770;2022-08-02T13:54:21;3.63;;;2.80;;
2646;SDS011;1333;50.958;6.770;2022-08-02T13:56:47;3.03;;;2.80;;
2646;SDS011;1333;50.958;6.770;2022-08-02T13:59:12;2.73;;;2.53;;
2646;SDS011;1333;50.958;6.770;2022-08-02T14:01:38;2.63;;;2.43;;
2646;SDS011;1333;50.958;6.770;2022-08-02T14:04:04;2.53;;;2.33;;
2646;SDS011;1333;50.958;6.770;2022-08-02T14:06:29;2.83;;;2.63;;
2646;SDS011;1333;50.958;6.770;2022-08-02T14:08:55;2.87;;;2.67;;
2646;SDS011;1333;50.958;6.770;2022-08-02T14:11:21;2.63;;;2.43;;
2646;SDS011;1333;50.958;6.770;2022-08-02T14:13:46;2.40;;;2.30;;
2646;SDS011;1333;50.958;6.770;2022-08-02T14:16:12;3.77;;;3.47;;
2646;SDS011;1333;50.958;6.770;2022-08-02T14:18:37;2.30;;;2.20;;
2646;SDS011;1333;50.958;6.770;2022-08-02T14:21:03;2.20;;;2.00;;
2646;SDS011;1333;50.958;6.770;2022-08-02T14:23:29;2.30;;;2.20;;
2646;SDS011;1333;50.958;6.770;2022-08-02T14:25:56;2.63;;;2.27;;
2646;SDS011;1333;50.958;6.770;2022-08-02T14:28:22;2.37;;;1.80;;
2646;SDS011;1333;50.958;6.770;2022-08-02T14:30:47;1.80;;;1.70;;
2646;SDS011;1333;50.958;6.770;2022-08-02T14:33:13;1.87;;;1.53;;
2646;SDS011;1333;50.958;6.770;2022-08-02T14:35:38;2.10;;;1.90;;
2646;SDS011;1333;50.958;6.770;2022-08-02T14:38:04;3.17;;;1.93;;
2646;SDS011;1333;50.958;6.770;2022-08-02T14:40:30;1.97;;;1.77;;
2646;SDS011;1333;50.958;6.770;2022-08-02T14:42:56;1.63;;;1.53;;
2646;SDS011;1333;50.958;6.770;2022-08-02T14:45:22;2.27;;;1.73;;
2646;SDS011;1333;50.958;6.770;2022-08-02T14:47:50;2.07;;;1.83;;
2646;SDS011;1333;50.958;6.770;2022-08-02T14:50:16;2.60;;;2.00;;
2646;SDS011;1333;50.958;6.770;2022-08-02T14:52:42;2.40;;;2.20;;
2646;SDS011;1333;50.958;6.770;2022-08-02T14:55:09;2.47;;;2.27;;
2646;SDS011;1333;50.958;6.770;2022-08-02T14:57:35;1.90;;;1.67;;
2646;SDS011;1333;50.958;6.770;2022-08-02T15:00:00;3.33;;;2.00;;
2646;SDS011;1333;50.958;6.770;2022-08-02T15:02:26;1.77;;;1.67;;
2646;SDS011;1333;50.958;6.770;2022-08-02T15:04:52;2.10;;;1.90;;
2646;SDS011;1333;50.958;6.770;2022-08-02T15:07:17;3.03;;;1.60;;
2646;SDS011;1333;50.958;6.770;2022-08-02T15:09:43;1.77;;;1.67;;
2646;SDS011;1333;50.958;6.770;2022-08-02T15:12:09;2.20;;;2.00;;
2646;SDS011;1333;50.958;6.770;2022-08-02T15:14:35;2.03;;;1.90;;
2646;SDS011;1333;50.958;6.770;2022-08-02T15:17:02;2.13;;;1.93;;
2646;SDS011;1333;50.958;6.770;2022-08-02T15:19:28;5.57;;;2.23;;
2646;SDS011;1333;50.958;6.770;2022-08-02T15:21:54;3.00;;;2.30;;
2646;SDS011;1333;50.958;6.770;2022-08-02T15:24:19;1.70;;;1.60;;
2646;SDS011;1333;50.958;6.770;2022-08-02T15:26:45;1.80;;;1.40;;
2646;SDS011;1333;50.958;6.770;2022-08-02T15:29:10;1.80;;;1.70;;
2646;SDS011;1333;50.958;6.770;2022-08-02T15:31:36;2.30;;;2.10;;
2646;SDS011;1333;50.958;6.770;2022-08-02T15:34:01;1.90;;;1.47;;
2646;SDS011;1333;50.958;6.770;2022-08-02T15:36:27;1.93;;;1.73;;
2646;SDS011;1333;50.958;6.770;2022-08-02T15:38:53;2.70;;;2.50;;
2646;SDS011;1333;50.958;6.770;2022-08-02T15:41:19;2.87;;;2.67;;
2646;SDS011;1333;50.958;6.770;2022-08-02T15:43:44;3.03;;;1.90;;
2646;SDS011;1333;50.958;6.770;2022-08-02T15:46:10;3.47;;;2.00;;
2646;SDS011;1333;50.958;6.770;2022-08-02T15:48:35;2.23;;;1.90;;
2646;SDS011;1333;50.958;6.770;2022-08-02T15:51:01;1.83;;;1.70;;
2646;SDS011;1333;50.958;6.770;2022-08-02T15:53:27;3.20;;;1.60;;
2646;SDS011;1333;50.958;6.770;2022-08-02T15:55:53;1.67;;;1.57;;
2646;SDS011;1333;50.958;6.770;2022-08-02T15:58:19;2.70;;;1.60;;
2646;SDS011;1333;50.958;6.770;2022-08-02T16:00:44;2.07;;;1.83;;